Time;durP1;ratioP1;P1;durP2;ratioP2;P2;SDS_P1;SDS_P2;PMS_P1;PMS_P2;Temp;Humidity;BMP_temperature;BMP_pressure;BME280_temperature;BME280_humidity;BME280_pressure;Samples;Min_cycle;Max_cycle;Signal;HPM_P1;HPM_P2
2022/08/22 00:01:33;;;;;;;;;;;;;;;21.63;83.20;98600.65;1695948;83;20127;-71
2022/08/22 00:04:13;;;;;;;;;;;;;;;21.63;83.11;98602.53;1695488;83;22011;-71
2022/08/22 00:06:52;;;;;;;;;;;;;;;21.65;83.40;98605.78;1694266;83;20115;-71
2022/08/22 00:09:35;;;;;;;;;;;;;;;21.70;83.50;98607.98;1658184;84;20431;-71
2022/08/22 00:12:18;;;;;;;;;;;;;;;21.77;83.48;98606.41;1666608;84;20734;-72
2022/08/22 00:15:06;;;;;;;;;;;;;;;21.82;83.32;98600.45;1688371;85;20175;-70
2022/08/22 00:17:39;;;;;;;;;;;;;;;21.86;82.98;98599.43;1667198;84;21160;-70
2022/08/22 00:20:15;;;;;;;;;;;;;;;21.87;82.79;98603.25;1695991;83;20120;-71
2022/08/22 00:23:10;;;;;;;;;;;;;;;21.83;82.25;98600.74;1690684;85;20442;-71
2022/08/22 00:25:56;;;;;;;;;;;;;;;21.75;82.24;98601.23;1683347;85;20122;-69
2022/08/22 00:28:26;;;;;;;;;;;;;;;21.67;82.09;98596.86;1690674;85;20080;-71
2022/08/22 00:31:08;;;;;;;;;;;;;;;21.62;82.21;98594.95;1690902;85;22773;-70
2022/08/22 00:33:44;;;;;;;;;;;;;;;21.62;82.13;98599.54;1689728;84;20093;-70
2022/08/22 00:36:20;;;;;;;;;;;;;;;21.62;82.00;98604.95;1688957;85;20437;-70
2022/08/22 00:38:50;;;;;;;;;;;;;;;21.60;81.97;98597.11;1690446;84;20096;-69
2022/08/22 00:41:23;;;;;;;;;;;;;;;21.63;82.21;98589.83;1690526;84;20115;-68
2022/08/22 00:44:08;;;;;;;;;;;;;;;21.67;82.32;98594.97;1676218;84;21197;-70
2022/08/22 00:46:45;;;;;;;;;;;;;;;21.71;82.38;98601.51;1689677;85;20108;-72
2022/08/22 00:49:17;;;;;;;;;;;;;;;21.77;82.39;98596.94;1696991;83;20138;-70
2022/08/22 00:52:09;;;;;;;;;;;;;;;21.80;82.33;98598.56;1662162;84;20182;-70
2022/08/22 00:54:59;;;;;;;;;;;;;;;21.81;82.30;98599.37;1696373;83;20083;-70
2022/08/22 00:57:29;;;;;;;;;;;;;;;21.80;82.30;98594.50;1692670;83;21999;-70
2022/08/22 01:00:12;;;;;;;;;;;;;;;21.81;82.25;98596.67;1706994;83;20417;-70
2022/08/22 01:02:55;;;;;;;;;;;;;;;21.78;82.33;98593.95;1650562;84;20093;-70
2022/08/22 01:05:52;;;;;;;;;;;;;;;21.79;82.44;98593.42;1666397;84;20157;-70
2022/08/22 01:08:45;;;;;;;;;;;;;;;21.78;82.30;98596.66;1627331;86;20447;-71
2022/08/22 01:11:27;;;;;;;;;;;;;;;21.70;81.67;98602.57;1612945;89;21187;-71
2022/08/22 01:14:00;;;;;;;;;;;;;;;21.58;81.03;98599.80;1652128;84;20428;-71
2022/08/22 01:16:46;;;;;;;;;;;;;;;21.47;80.88;98601.63;1694751;83;20087;-71
2022/08/22 01:19:49;;;;;;;;;;;;;;;21.42;81.08;98598.89;1695226;83;20696;-70
2022/08/22 01:22:31;;;;;;;;;;;;;;;21.41;81.27;98595.90;1696099;83;20422;-71
2022/08/22 01:25:37;;;;;;;;;;;;;;;21.39;81.46;98596.17;1695966;83;21142;-71
2022/08/22 01:28:31;;;;;;;;;;;;;;;21.34;81.14;98595.32;1674710;84;20110;-72
2022/08/22 01:31:01;;;;;;;;;;;;;;;21.30;81.07;98607.75;1737914;81;20097;-70
2022/08/22 01:33:46;;;;;;;;;;;;;;;21.18;80.84;98610.62;1733643;83;20096;-71
2022/08/22 01:36:31;;;;;;;;;;;;;;;21.10;80.93;98611.64;1671496;82;20191;-72
2022/08/22 01:39:21;;;;;;;;;;;;;;;21.02;81.43;98616.13;1722472;82;21121;-68
2022/08/22 01:42:09;;;;;;;;;;;;;;;20.99;81.90;98622.08;1705591;82;20423;-70
2022/08/22 01:44:54;;;;;;;;;;;;;;;20.94;82.18;98629.06;1722553;82;20116;-70
2022/08/22 01:47:45;;;;;;;;;;;;;;;20.82;82.64;98621.66;1721438;82;20097;-69
2022/08/22 01:50:30;;;;;;;;;;;;;;;20.73;83.19;98641.28;1704377;82;20180;-71
2022/08/22 01:53:09;;;;;;;;;;;;;;;20.71;83.67;98636.67;1722610;82;21089;-71
2022/08/22 01:55:57;;;;;;;;;;;;;;;20.66;83.93;98634.75;1722657;82;20101;-71
2022/08/22 01:58:26;;;;;;;;;;;;;;;20.71;84.31;98630.73;1701783;82;20132;-70
2022/08/22 02:01:15;;;;;;;;;;;;;;;20.80;84.30;98633.80;1721584;82;20643;-71
2022/08/22 02:04:04;;;;;;;;;;;;;;;20.83;84.23;98630.03;1722784;82;20128;-72
2022/08/22 02:06:43;;;;;;;;;;;;;;;20.85;84.22;98626.56;1721607;82;21193;-71
2022/08/22 02:09:37;;;;;;;;;;;;;;;20.88;84.39;98628.72;1722256;82;20221;-71
2022/08/22 02:12:25;;;;;;;;;;;;;;;20.93;84.58;98631.47;1715993;82;20427;-70
2022/08/22 02:15:01;;;;;;;;;;;;;;;20.99;84.38;98631.55;1722542;82;20203;-71
2022/08/22 02:17:30;;;;;;;;;;;;;;;21.00;84.44;98639.91;1721633;82;20085;-72
2022/08/22 02:20:03;;;;;;;;;;;;;;;21.01;84.50;98642.38;1722640;82;21843;-70
2022/08/22 02:23:09;;;;;;;;;;;;;;;21.05;84.49;98641.31;1722386;82;20177;-71
2022/08/22 02:25:51;;;;;;;;;;;;;;;21.06;84.41;98637.55;1722587;82;20147;-72
2022/08/22 02:28:39;;;;;;;;;;;;;;;21.06;84.53;98638.89;1706901;82;20073;-71
2022/08/22 02:31:13;;;;;;;;;;;;;;;21.05;84.57;98636.72;1703100;82;20148;-71
2022/08/22 02:33:49;;;;;;;;;;;;;;;21.06;84.57;98640.25;1722080;82;21138;-70
2022/08/22 02:36:19;;;;;;;;;;;;;;;21.07;84.57;98643.24;1715530;82;20098;-71
2022/08/22 02:38:52;;;;;;;;;;;;;;;21.07;84.55;98635.95;1714723;82;20092;-71
2022/08/22 02:41:49;;;;;;;;;;;;;;;21.08;84.47;98634.89;1713614;82;20619;-71
2022/08/22 02:44:34;;;;;;;;;;;;;;;21.12;84.56;98629.23;1714470;82;20447;-70
2022/08/22 02:47:14;;;;;;;;;;;;;;;21.16;84.59;98629.55;1713535;83;21851;-70
2022/08/22 02:49:44;;;;;;;;;;;;;;;21.17;84.54;98629.83;1712963;82;20144;-68
2022/08/22 02:52:17;;;;;;;;;;;;;;;21.12;84.30;98634.64;1714293;83;20125;-71
2022/08/22 02:54:49;;;;;;;;;;;;;;;21.08;84.23;98638.13;1713803;83;20085;-69
2022/08/22 02:57:29;;;;;;;;;;;;;;;21.04;84.30;98639.14;1689992;83;21318;-70
2022/08/22 03:00:17;;;;;;;;;;;;;;;21.07;84.42;98647.30;1713880;82;21154;-71
2022/08/22 03:03:02;;;;;;;;;;;;;;;21.09;84.47;98643.83;1714285;83;20082;-69
2022/08/22 03:05:38;;;;;;;;;;;;;;;21.08;84.36;98645.70;1714423;83;20424;-69
2022/08/22 03:08:14;;;;;;;;;;;;;;;21.04;84.09;98650.52;1713360;82;20089;-70
2022/08/22 03:11:12;;;;;;;;;;;;;;;21.00;84.07;98657.48;1714279;83;20152;-69
2022/08/22 03:14:11;;;;;;;;;;;;;;;20.98;84.15;98661.81;1713940;83;21225;-70
2022/08/22 03:16:57;;;;;;;;;;;;;;;21.00;84.06;98659.66;1713151;83;20431;-70
2022/08/22 03:19:47;;;;;;;;;;;;;;;21.02;84.12;98660.75;1714247;83;20086;-69
2022/08/22 03:22:22;;;;;;;;;;;;;;;21.04;84.19;98662.12;1714409;83;20093;-69
2022/08/22 03:24:53;;;;;;;;;;;;;;;21.07;84.24;98659.47;1714473;83;20439;-69
2022/08/22 03:27:26;;;;;;;;;;;;;;;21.10;84.25;98657.08;1712932;82;21232;-69
2022/08/22 03:29:56;;;;;;;;;;;;;;;21.17;84.18;98654.96;1702585;83;20104;-68
2022/08/22 03:32:24;;;;;;;;;;;;;;;21.22;84.11;98656.35;1706635;83;20113;-69
2022/08/22 03:35:00;;;;;;;;;;;;;;;21.28;83.68;98658.56;1714725;82;20097;-70
2022/08/22 03:37:39;;;;;;;;;;;;;;;21.26;83.51;98664.78;1742089;81;20115;-69
2022/08/22 03:40:28;;;;;;;;;;;;;;;21.31;83.53;98668.34;1738617;81;21105;-72
2022/08/22 03:43:13;;;;;;;;;;;;;;;21.39;83.38;98661.63;1746790;81;20094;-72
2022/08/22 03:45:55;;;;;;;;;;;;;;;21.47;82.99;98663.86;1707229;81;20204;-72
2022/08/22 03:48:37;;;;;;;;;;;;;;;21.44;82.43;98675.20;1738870;81;20084;-73
2022/08/22 03:51:22;;;;;;;;;;;;;;;21.45;82.36;98684.42;1723672;81;20118;-72
2022/08/22 03:54:23;;;;;;;;;;;;;;;21.49;81.88;98682.00;1762518;81;21108;-72
2022/08/22 03:57:05;;;;;;;;;;;;;;;21.51;81.82;98687.42;1619851;87;20491;-72
2022/08/22 03:59:56;;;;;;;;;;;;;;;21.58;81.63;98688.58;1626314;87;20128;-74
2022/08/22 04:02:44;;;;;;;;;;;;;;;21.59;81.29;98679.36;1627537;88;20084;-73
2022/08/22 04:05:29;;;;;;;;;;;;;;;21.64;81.39;98675.89;1627750;87;20084;-73
2022/08/22 04:07:59;;;;;;;;;;;;;;;21.74;81.25;98680.84;1627632;87;21136;-72
2022/08/22 04:10:38;;;;;;;;;;;;;;;21.81;80.89;98678.70;1626643;87;20116;-72
2022/08/22 04:13:14;;;;;;;;;;;;;;;21.87;80.60;98675.53;1627285;87;20483;-75
2022/08/22 04:16:09;;;;;;;;;;;;;;;21.93;80.26;98675.81;1627870;87;20136;-72
2022/08/22 04:18:55;;;;;;;;;;;;;;;21.94;80.02;98676.92;1627099;87;20465;-71
2022/08/22 04:21:48;;;;;;;;;;;;;;;21.97;79.87;98680.46;1617421;87;21169;-72
2022/08/22 04:24:22;;;;;;;;;;;;;;;22.02;79.70;98680.48;1627979;87;20145;-74
2022/08/22 04:27:14;;;;;;;;;;;;;;;22.06;79.33;98683.46;1627882;87;20113;-72
2022/08/22 04:29:53;;;;;;;;;;;;;;;22.07;79.02;98691.88;1626796;87;20165;-72
2022/08/22 04:32:35;;;;;;;;;;;;;;;22.02;78.90;98687.25;1626604;87;20132;-74
2022/08/22 04:35:19;;;;;;;;;;;;;;;21.92;78.81;98692.63;1627699;87;21185;-72
2022/08/22 04:37:55;;;;;;;;;;;;;;;21.81;78.95;98686.01;1627691;87;20096;-74
2022/08/22 04:40:34;;;;;;;;;;;;;;;21.78;79.04;98679.22;1626323;87;20414;-73
2022/08/22 04:43:04;;;;;;;;;;;;;;;21.78;79.06;98685.17;1627570;87;20174;-71
2022/08/22 04:45:43;;;;;;;;;;;;;;;21.77;78.85;98679.50;1627715;87;20154;-72
2022/08/22 04:48:16;;;;;;;;;;;;;;;21.74;78.82;98688.96;1626043;87;21094;-70
2022/08/22 04:50:46;;;;;;;;;;;;;;;21.71;78.99;98696.77;1625480;87;20288;-71
2022/08/22 04:53:49;;;;;;;;;;;;;;;21.67;79.02;98705.12;1626848;87;20148;-71
2022/08/22 04:56:53;;;;;;;;;;;;;;;21.68;79.16;98711.64;1644218;85;20090;-70
2022/08/22 04:59:19;;;;;;;;;;;;;;;21.85;79.39;98712.82;1641038;85;20166;-70
2022/08/22 05:01:54;;;;;;;;;;;;;;;22.16;78.54;98711.95;1652424;85;21240;-72
2022/08/22 05:04:30;;;;;;;;;;;;;;;22.34;77.62;98716.94;1646717;85;20106;-72
2022/08/22 05:07:16;;;;;;;;;;;;;;;22.50;77.04;98729.45;1651577;85;20090;-72
2022/08/22 05:09:48;;;;;;;;;;;;;;;22.64;76.43;98727.92;1652756;87;20095;-72
2022/08/22 05:12:21;;;;;;;;;;;;;;;22.65;76.00;98732.27;1652561;85;20090;-72
2022/08/22 05:14:50;;;;;;;;;;;;;;;22.71;75.87;98733.90;1652090;85;21189;-72
2022/08/22 05:17:21;;;;;;;;;;;;;;;22.93;75.84;98730.98;1652032;85;20118;-72
2022/08/22 05:19:50;;;;;;;;;;;;;;;23.42;75.21;98721.03;1652315;85;20432;-73
2022/08/22 05:22:20;;;;;;;;;;;;;;;23.96;73.77;98725.59;1652035;85;20095;-72
2022/08/22 05:24:48;;;;;;;;;;;;;;;24.52;71.14;98730.36;1653409;85;20447;-69
2022/08/22 05:27:20;;;;;;;;;;;;;;;24.89;69.50;98729.13;1653382;85;21877;-70
2022/08/22 05:29:48;;;;;;;;;;;;;;;25.24;68.59;98720.72;1652986;85;20181;-71
2022/08/22 05:32:24;;;;;;;;;;;;;;;25.66;66.72;98714.69;1652598;85;20106;-71
2022/08/22 05:34:51;;;;;;;;;;;;;;;25.89;65.39;98720.73;1629542;85;20857;-70
2022/08/22 05:37:21;;;;;;;;;;;;;;;26.10;64.90;98715.88;1647079;85;20082;-70
2022/08/22 05:39:51;;;;;;;;;;;;;;;26.31;64.23;98718.67;1634178;86;21193;-70
2022/08/22 05:42:25;;;;;;;;;;;;;;;26.56;63.38;98711.58;1636417;86;20800;-71
2022/08/22 05:44:52;;;;;;;;;;;;;;;26.68;62.38;98716.59;1630890;86;20156;-70
2022/08/22 05:47:36;;;;;;;;;;;;;;;26.66;62.21;98725.63;1630109;86;20091;-71
2022/08/22 05:50:34;;;;;;;;;;;;;;;26.63;61.89;98724.30;1644615;84;20078;-71
2022/08/22 05:53:10;;;;;;;;;;;;;;;26.58;61.68;98735.27;1636617;86;21182;-70
2022/08/22 05:56:01;;;;;;;;;;;;;;;26.51;61.52;98734.82;1656373;85;20146;-71
2022/08/22 05:58:51;;;;;;;;;;;;;;;26.33;62.01;98728.77;1660414;85;20102;-71
2022/08/22 06:01:45;;;;;;;;;;;;;;;26.04;62.31;98723.88;1659322;85;20126;-71
2022/08/22 06:04:33;;;;;;;;;;;;;;;25.71;63.41;98729.63;1647666;85;20079;-70
2022/08/22 06:07:08;;;;;;;;;;;;;;;25.50;64.30;98723.54;1660583;85;21042;-72
2022/08/22 06:10:00;;;;;;;;;;;;;;;25.39;64.83;98732.06;1652738;85;20432;-71
2022/08/22 06:12:42;;;;;;;;;;;;;;;25.28;65.02;98723.16;1659065;85;20102;-69
2022/08/22 06:15:25;;;;;;;;;;;;;;;25.01;65.66;98726.32;1658278;85;20138;-71
2022/08/22 06:18:06;;;;;;;;;;;;;;;24.77;66.58;98726.69;1655700;85;20090;-71
2022/08/22 06:20:39;;;;;;;;;;;;;;;24.64;67.17;98731.95;1660096;85;21192;-70
2022/08/22 06:23:06;;;;;;;;;;;;;;;24.46;67.70;98731.46;1676588;85;20090;-70
2022/08/22 06:25:36;;;;;;;;;;;;;;;24.34;68.33;98738.31;1660508;85;20130;-69
2022/08/22 06:28:07;;;;;;;;;;;;;;;24.18;68.90;98740.26;1663253;85;20960;-70
2022/08/22 06:30:34;;;;;;;;;;;;;;;24.04;69.53;98743.23;1668791;85;20448;-71
2022/08/22 06:33:03;;;;;;;;;;;;;;;24.00;70.04;98747.60;1661078;85;21920;-69
2022/08/22 06:38:21;;;;;;;;;;;;;;;23.89;70.83;98748.70;1649837;85;20086;-70
2022/08/22 06:40:48;;;;;;;;;;;;;;;23.79;71.33;98747.36;1657156;86;20123;-73
2022/08/22 06:43:15;;;;;;;;;;;;;;;23.76;71.67;98748.72;1657943;86;20092;-69
2022/08/22 06:45:41;;;;;;;;;;;;;;;23.73;71.79;98751.16;1664194;85;21127;-71
2022/08/22 06:48:14;;;;;;;;;;;;;;;23.64;72.22;98760.41;1658692;86;20118;-71
2022/08/22 06:50:42;;;;;;;;;;;;;;;23.56;72.57;98757.41;1660904;85;20176;-71
2022/08/22 06:53:37;;;;;;;;;;;;;;;23.49;72.98;98765.81;1656539;86;20312;-73
2022/08/22 06:56:04;;;;;;;;;;;;;;;23.42;73.10;98762.56;1654982;86;20143;-74
2022/08/22 06:58:43;;;;;;;;;;;;;;;23.31;73.39;98762.23;1662299;85;21113;-72
2022/08/22 07:01:17;;;;;;;;;;;;;;;23.25;73.50;98759.27;1659851;86;20113;-70
2022/08/22 07:03:52;;;;;;;;;;;;;;;23.20;73.85;98761.97;1660128;86;20215;-69
2022/08/22 07:06:25;;;;;;;;;;;;;;;23.20;74.28;98761.41;1650178;86;20126;-69
2022/08/22 07:08:53;;;;;;;;;;;;;;;23.30;74.43;98766.87;1661095;85;20412;-71
2022/08/22 07:11:23;;;;;;;;;;;;;;;23.39;74.21;98769.09;1660438;86;21894;-69
2022/08/22 07:13:56;;;;;;;;;;;;;;;23.48;74.11;98768.27;1659496;86;20327;-70
2022/08/22 07:16:28;;;;;;;;;;;;;;;23.54;73.82;98763.66;1660838;86;20154;-69
2022/08/22 07:18:54;;;;;;;;;;;;;;;23.57;73.72;98765.27;1660135;85;20118;-68
2022/08/22 07:21:30;;;;;;;;;;;;;;;23.64;73.65;98760.95;1668667;84;20102;-68
2022/08/22 07:23:57;;;;;;;;;;;;;;;23.72;73.47;98769.38;1658379;86;21790;-68
2022/08/22 07:26:44;;;;;;;;;;;;;;;23.79;73.10;98782.66;1657687;86;20106;-69
2022/08/22 07:29:34;;;;;;;;;;;;;;;23.78;72.94;98783.73;1658510;86;20106;-69
2022/08/22 07:32:19;;;;;;;;;;;;;;;23.74;73.18;98784.02;1654638;86;20146;-70
2022/08/22 07:34:58;;;;;;;;;;;;;;;23.72;73.42;98791.63;1649932;86;20427;-68
2022/08/22 07:37:46;;;;;;;;;;;;;;;23.69;73.74;98794.34;1662603;86;21713;-67
2022/08/22 07:40:16;;;;;;;;;;;;;;;23.60;74.08;98787.81;1654363;86;20101;-68
2022/08/22 07:42:47;;;;;;;;;;;;;;;23.51;74.61;98784.56;1661686;86;20182;-71
2022/08/22 07:45:38;;;;;;;;;;;;;;;23.43;74.99;98793.23;1656738;86;20218;-70
2022/08/22 07:48:23;;;;;;;;;;;;;;;23.34;75.45;98795.09;1652625;86;20106;-71
2022/08/22 07:51:12;;;;;;;;;;;;;;;23.27;76.04;98786.94;1657755;86;21154;-72
2022/08/22 07:53:45;;;;;;;;;;;;;;;23.27;76.66;98790.47;1657910;86;20455;-71
2022/08/22 07:56:17;;;;;;;;;;;;;;;23.31;76.91;98786.12;1657706;86;20149;-72
2022/08/22 07:58:45;;;;;;;;;;;;;;;23.31;77.05;98790.19;1667681;85;20535;-72
2022/08/22 08:01:17;;;;;;;;;;;;;;;23.31;77.32;98775.27;1690981;84;20417;-72
2022/08/22 08:03:47;;;;;;;;;;;;;;;23.34;77.64;98773.37;1686918;84;21350;-71
2022/08/22 08:06:13;;;;;;;;;;;;;;;23.38;77.80;98772.88;1676047;85;20095;-71
2022/08/22 08:08:41;;;;;;;;;;;;;;;23.42;77.88;98767.98;1650383;85;20178;-71
2022/08/22 08:11:10;;;;;;;;;;;;;;;23.48;78.05;98766.09;1639053;85;20635;-72
2022/08/22 08:13:41;;;;;;;;;;;;;;;23.55;77.97;98767.99;1655888;85;20173;-71
2022/08/22 08:16:09;;;;;;;;;;;;;;;23.62;78.02;98773.98;1640849;85;21181;-72
2022/08/22 08:18:36;;;;;;;;;;;;;;;23.70;77.94;98770.73;1649150;85;20077;-72
2022/08/22 08:21:07;;;;;;;;;;;;;;;23.79;77.92;98775.33;1640666;85;20126;-71
2022/08/22 08:23:43;;;;;;;;;;;;;;;23.94;77.82;98781.28;1681182;84;20083;-71
2022/08/22 08:26:14;;;;;;;;;;;;;;;24.09;77.56;98776.42;1636168;86;20183;-72
2022/08/22 08:28:43;;;;;;;;;;;;;;;24.22;77.22;98774.50;1650774;84;21246;-70
2022/08/22 08:31:13;;;;;;;;;;;;;;;24.34;77.07;98764.95;1640458;86;20493;-70
2022/08/22 08:33:41;;;;;;;;;;;;;;;24.48;76.52;98761.11;1655713;84;20628;-72
2022/08/22 08:36:28;;;;;;;;;;;;;;;24.62;76.28;98761.30;1668306;84;20110;-71
2022/08/22 08:39:13;;;;;;;;;;;;;;;24.77;75.92;98766.70;1668147;84;20125;-72
2022/08/22 08:42:08;;;;;;;;;;;;;;;24.92;75.57;98763.39;1622617;86;21145;-71
2022/08/22 08:44:51;;;;;;;;;;;;;;;25.08;75.10;98762.76;1668366;84;20122;-70
2022/08/22 08:47:43;;;;;;;;;;;;;;;25.26;74.27;98758.56;1638287;86;20091;-71
2022/08/22 08:50:33;;;;;;;;;;;;;;;25.37;73.77;98758.76;1622611;86;20209;-72
2022/08/22 08:53:12;;;;;;;;;;;;;;;25.54;72.92;98755.93;1668324;84;20132;-74
2022/08/22 08:55:53;;;;;;;;;;;;;;;25.65;72.26;98753.36;1668150;84;21199;-69
2022/08/22 08:58:55;;;;;;;;;;;;;;;25.82;71.50;98752.14;1634946;86;20133;-71
2022/08/22 09:01:34;;;;;;;;;;;;;;;25.92;71.04;98750.13;1663247;85;20182;-71
2022/08/22 09:04:19;;;;;;;;;;;;;;;26.10;71.17;98748.59;1634591;86;20710;-71
2022/08/22 09:07:08;;;;;;;;;;;;;;;26.35;71.00;98751.09;1636190;86;20154;-71
2022/08/22 09:09:45;;;;;;;;;;;;;;;26.69;70.20;98753.69;1636214;86;21327;-69
2022/08/22 09:12:39;;;;;;;;;;;;;;;26.98;68.77;98753.84;1663246;84;20521;-72
2022/08/22 09:15:16;;;;;;;;;;;;;;;27.20;67.86;98766.92;1663207;84;20085;-71
2022/08/22 09:17:51;;;;;;;;;;;;;;;27.42;67.18;98763.64;1635702;86;20171;-71
2022/08/22 09:20:36;;;;;;;;;;;;;;;27.60;66.43;98763.34;1663470;85;20098;-70
2022/08/22 09:23:29;;;;;;;;;;;;;;;27.74;65.85;98763.64;1620674;86;21112;-71
2022/08/22 09:26:05;;;;;;;;;;;;;;;27.81;65.31;98764.09;1636222;86;20084;-72
2022/08/22 09:28:40;;;;;;;;;;;;;;;27.90;64.93;98757.36;1663170;84;20121;-71
2022/08/22 09:31:30;;;;;;;;;;;;;;;27.89;64.45;98763.41;1634834;86;20634;-70
2022/08/22 09:34:09;;;;;;;;;;;;;;;27.89;64.45;98765.32;1663349;84;20119;-70
2022/08/22 09:36:52;;;;;;;;;;;;;;;27.99;64.11;98761.03;1634934;86;39035;-71
2022/08/22 09:39:31;;;;;;;;;;;;;;;28.19;63.59;98759.33;1633277;86;20106;-70
2022/08/22 09:42:27;;;;;;;;;;;;;;;28.60;62.76;98749.78;1634889;86;20108;-72
2022/08/22 09:45:17;;;;;;;;;;;;;;;29.09;61.71;98747.10;1663302;85;20150;-71
2022/08/22 09:48:02;;;;;;;;;;;;;;;29.67;60.45;98749.05;1634242;86;20158;-72
2022/08/22 09:50:41;;;;;;;;;;;;;;;30.22;58.78;98742.70;1663226;84;21144;-70
2022/08/22 09:53:11;;;;;;;;;;;;;;;30.62;57.42;98745.70;1663147;84;20090;-70
2022/08/22 09:56:01;;;;;;;;;;;;;;;30.80;56.16;98748.73;1635212;86;20100;-72
2022/08/22 09:58:48;;;;;;;;;;;;;;;30.83;55.92;98743.16;1662536;84;20114;-70
2022/08/22 10:01:18;;;;;;;;;;;;;;;30.84;55.21;98738.74;1635081;86;20104;-72
2022/08/22 10:04:05;;;;;;;;;;;;;;;30.71;55.01;98746.55;1662137;84;21119;-71
2022/08/22 10:06:44;;;;;;;;;;;;;;;30.58;55.19;98746.10;1663350;84;20126;-72
2022/08/22 10:09:36;;;;;;;;;;;;;;;30.37;55.86;98740.94;1663392;84;20391;-70
2022/08/22 10:12:12;;;;;;;;;;;;;;;30.18;56.17;98745.27;1659791;84;20121;-70
2022/08/22 10:14:46;;;;;;;;;;;;;;;30.06;56.79;98747.77;1635027;86;20104;-72
2022/08/22 10:17:21;;;;;;;;;;;;;;;30.08;56.97;98747.46;1661117;84;21115;-72
2022/08/22 10:19:54;;;;;;;;;;;;;;;30.10;57.18;98747.39;1630666;86;20455;-71
2022/08/22 10:22:33;;;;;;;;;;;;;;;30.25;56.92;98744.23;1645576;85;20142;-71
2022/08/22 10:25:18;;;;;;;;;;;;;;;30.39;56.38;98744.98;1646206;86;20139;-71
2022/08/22 10:28:07;;;;;;;;;;;;;;;30.56;56.12;98743.66;1646439;86;20204;-70
2022/08/22 10:30:49;;;;;;;;;;;;;;;30.71;55.93;98744.36;1646510;86;21142;-71
2022/08/22 10:33:25;;;;;;;;;;;;;;;30.77;55.47;98742.50;1646464;85;20087;-71
2022/08/22 10:36:06;;;;;;;;;;;;;;;30.82;55.35;98745.66;1646466;86;20107;-70
2022/08/22 10:38:36;;;;;;;;;;;;;;;30.86;54.10;98740.59;1646370;86;20103;-72
2022/08/22 10:41:18;;;;;;;;;;;;;;;30.78;51.32;98740.02;1646380;86;20111;-71
2022/08/22 10:43:54;;;;;;;;;;;;;;;30.69;50.67;98741.13;1646334;86;21254;-71
2022/08/22 10:46:23;;;;;;;;;;;;;;;30.62;50.60;98744.33;1646428;85;20173;-71
2022/08/22 10:48:56;;;;;;;;;;;;;;;30.60;50.49;98747.95;1646037;85;20172;-70
2022/08/22 10:51:35;;;;;;;;;;;;;;;30.50;50.01;98744.92;1646457;86;20116;-72
2022/08/22 10:54:20;;;;;;;;;;;;;;;30.36;50.38;98746.98;1646467;85;20092;-71
2022/08/22 10:57:02;;;;;;;;;;;;;;;30.23;50.79;98751.98;1646350;86;21292;-71
2022/08/22 10:59:41;;;;;;;;;;;;;;;30.12;50.40;98748.44;1646342;86;20123;-71
2022/08/22 11:02:35;;;;;;;;;;;;;;;30.12;49.99;98745.70;1646532;86;20103;-70
2022/08/22 11:05:21;;;;;;;;;;;;;;;30.24;50.66;98740.45;1646482;86;20096;-72
2022/08/22 11:08:12;;;;;;;;;;;;;;;30.43;50.46;98741.02;1631512;85;20132;-71
2022/08/22 11:11:08;;;;;;;;;;;;;;;30.45;48.98;98741.53;1646279;85;21150;-73
2022/08/22 11:13:43;;;;;;;;;;;;;;;30.55;50.44;98741.25;1646229;86;20186;-71
2022/08/22 11:16:20;;;;;;;;;;;;;;;30.66;49.97;98745.29;1629544;85;20191;-72
2022/08/22 11:18:52;;;;;;;;;;;;;;;30.63;49.71;98749.26;1646339;86;20614;-72
2022/08/22 11:21:56;;;;;;;;;;;;;;;30.51;49.53;98741.06;1646546;86;20137;-71
2022/08/22 11:24:53;;;;;;;;;;;;;;;30.48;50.06;98738.95;1646439;86;21913;-72
2022/08/22 11:27:42;;;;;;;;;;;;;;;30.44;48.66;98739.91;1646530;86;20155;-71
2022/08/22 11:30:14;;;;;;;;;;;;;;;30.39;48.66;98749.66;1646384;85;20091;-71
2022/08/22 11:33:10;;;;;;;;;;;;;;;30.34;48.97;98727.27;1645774;86;20469;-71
2022/08/22 11:35:43;;;;;;;;;;;;;;;30.39;49.22;98740.05;1646395;85;20100;-72
2022/08/22 11:38:20;;;;;;;;;;;;;;;30.25;49.40;98729.14;1646581;86;21158;-71
2022/08/22 11:41:02;;;;;;;;;;;;;;;30.22;49.85;98730.36;1646089;85;20120;-71
2022/08/22 11:43:38;;;;;;;;;;;;;;;30.21;49.38;98726.80;1630187;86;20101;-70
2022/08/22 11:46:29;;;;;;;;;;;;;;;30.13;49.61;98723.45;1646284;86;20115;-71
2022/08/22 11:49:05;;;;;;;;;;;;;;;30.01;49.67;98728.70;1634511;86;20132;-72
2022/08/22 11:51:45;;;;;;;;;;;;;;;30.00;49.69;98734.52;1646389;85;21142;-71
2022/08/22 11:54:15;;;;;;;;;;;;;;;30.06;49.19;98732.68;1646398;86;20108;-71
2022/08/22 11:56:48;;;;;;;;;;;;;;;30.12;49.72;98721.83;1646101;86;20100;-72
2022/08/22 11:59:41;;;;;;;;;;;;;;;30.24;50.19;98719.87;1645932;86;20099;-71
2022/08/22 12:02:20;;;;;;;;;;;;;;;30.39;49.87;98724.41;1646344;85;20133;-70
2022/08/22 12:04:53;;;;;;;;;;;;;;;30.49;48.43;98724.11;1645270;86;21164;-71
2022/08/22 12:07:29;;;;;;;;;;;;;;;30.52;47.42;98728.16;1646193;86;20096;-71
2022/08/22 12:10:09;;;;;;;;;;;;;;;30.49;47.58;98722.73;1646299;86;20092;-70
2022/08/22 12:12:59;;;;;;;;;;;;;;;30.46;47.81;98717.88;1646416;86;20124;-71
2022/08/22 12:15:50;;;;;;;;;;;;;;;30.44;48.10;98715.21;1646352;85;20422;-70
2022/08/22 12:18:26;;;;;;;;;;;;;;;30.47;47.96;98714.58;1645905;86;21635;-71
2022/08/22 12:21:12;;;;;;;;;;;;;;;30.51;47.62;98712.25;1646327;86;20091;-71
2022/08/22 12:24:11;;;;;;;;;;;;;;;30.52;47.75;98708.95;1646438;86;20473;-70
2022/08/22 12:26:57;;;;;;;;;;;;;;;30.48;47.72;98706.02;1632310;86;20159;-70
2022/08/22 12:29:39;;;;;;;;;;;;;;;30.36;47.74;98707.76;1646377;85;20091;-72
2022/08/22 12:32:13;;;;;;;;;;;;;;;30.26;47.73;98701.97;1646322;86;21228;-71
2022/08/22 12:35:04;;;;;;;;;;;;;;;30.23;47.16;98695.75;1646313;86;20104;-71
2022/08/22 12:37:34;;;;;;;;;;;;;;;30.24;46.86;98693.27;1646255;86;20484;-70
2022/08/22 12:40:19;;;;;;;;;;;;;;;30.30;46.63;98696.64;1646334;86;20598;-72
2022/08/22 12:43:02;;;;;;;;;;;;;;;30.39;48.02;98692.03;1646217;85;20095;-72
2022/08/22 12:45:50;;;;;;;;;;;;;;;30.42;47.92;98699.08;1645674;86;22123;-71
2022/08/22 12:48:26;;;;;;;;;;;;;;;30.37;47.88;98698.41;1645570;86;20120;-71
2022/08/22 12:50:59;;;;;;;;;;;;;;;30.27;47.84;98712.39;1642763;86;20100;-70
2022/08/22 12:53:47;;;;;;;;;;;;;;;30.13;47.54;98704.81;1646018;86;20434;-71
2022/08/22 12:56:35;;;;;;;;;;;;;;;30.01;48.42;98704.02;1646352;85;20564;-72
2022/08/22 12:59:21;;;;;;;;;;;;;;;29.88;47.85;98713.15;1629248;85;21738;-71
2022/08/22 13:01:49;;;;;;;;;;;;;;;29.74;48.06;98713.22;1649150;85;20104;-70
2022/08/22 13:04:18;;;;;;;;;;;;;;;29.66;48.11;98708.50;1649167;85;20477;-71
2022/08/22 13:07:01;;;;;;;;;;;;;;;29.67;48.76;98714.80;1649103;85;20141;-71
2022/08/22 13:09:30;;;;;;;;;;;;;;;29.64;48.62;98707.19;1609409;87;20560;-70
2022/08/22 13:12:03;;;;;;;;;;;;;;;29.61;49.06;98713.29;1649110;85;21181;-70
2022/08/22 13:14:30;;;;;;;;;;;;;;;29.58;49.79;98716.66;1649046;85;20128;-71
2022/08/22 13:16:59;;;;;;;;;;;;;;;29.61;49.24;98720.95;1648859;85;20124;-72
2022/08/22 13:19:31;;;;;;;;;;;;;;;29.60;48.77;98717.95;1630891;85;20449;-72
2022/08/22 13:22:10;;;;;;;;;;;;;;;29.59;48.93;98714.17;1649252;85;20107;-71
2022/08/22 13:24:46;;;;;;;;;;;;;;;29.59;48.89;98707.32;1632052;85;21194;-71
2022/08/22 13:27:19;;;;;;;;;;;;;;;29.61;49.20;98709.19;1649329;85;20108;-71
2022/08/22 13:29:49;;;;;;;;;;;;;;;29.61;49.42;98712.73;1637069;86;20547;-70
2022/08/22 13:32:22;;;;;;;;;;;;;;;29.62;49.72;98714.92;1663268;84;20529;-69
2022/08/22 13:34:51;;;;;;;;;;;;;;;29.63;49.43;98708.30;1643415;86;20091;-71
2022/08/22 13:37:21;;;;;;;;;;;;;;;29.62;48.92;98706.11;1644076;86;21831;-70
2022/08/22 13:39:47;;;;;;;;;;;;;;;29.63;49.19;98710.48;1636211;86;20464;-70
2022/08/22 13:42:19;;;;;;;;;;;;;;;29.62;48.90;98710.23;1665948;84;20426;-70
2022/08/22 13:44:48;;;;;;;;;;;;;;;29.61;48.81;98714.66;1665169;84;20140;-70
2022/08/22 13:47:17;;;;;;;;;;;;;;;29.59;48.07;98713.59;1637005;86;20438;-70
2022/08/22 13:49:47;;;;;;;;;;;;;;;29.60;47.44;98717.95;1643261;86;21161;-71
2022/08/22 13:52:32;;;;;;;;;;;;;;;29.61;47.57;98709.19;1636813;86;20187;-70
2022/08/22 13:55:23;;;;;;;;;;;;;;;29.64;48.00;98706.64;1637488;86;20109;-70